sensor_id;sensor_type;location;lat;lon;timestamp;pressure;altitude;pressure_sealevel;temperature;humidity
5500;BME280;2772;42.700;23.304;2024-02-21T00:00:08;95746.25;;;8.00;100.00
5500;BME280;2772;42.700;23.304;2024-02-21T00:02:37;95742.25;;;8.03;100.00
5500;BME280;2772;42.700;23.304;2024-02-21T00:05:05;95747.41;;;7.84;100.00
5500;BME280;2772;42.700;23.304;2024-02-21T00:07:31;95751.69;;;7.75;100.00
5500;BME280;2772;42.700;23.304;2024-02-21T00:09:58;95755.63;;;7.78;100.00
5500;BME280;2772;42.700;23.304;2024-02-21T00:12:25;95745.31;;;7.71;100.00
5500;BME280;2772;42.700;23.304;2024-02-21T00:14:52;95742.66;;;7.76;100.00
5500;BME280;2772;42.700;23.304;2024-02-21T00:17:19;95747.13;;;7.86;100.00
5500;BME280;2772;42.700;23.304;2024-02-21T00:19:47;95736.81;;;7.79;100.00
5500;BME280;2772;42.700;23.304;2024-02-21T00:22:13;95742.38;;;7.78;100.00
5500;BME280;2772;42.700;23.304;2024-02-21T00:24:40;95736.81;;;7.79;100.00
5500;BME280;2772;42.700;23.304;2024-02-21T00:27:07;95738.91;;;7.82;100.00
5500;BME280;2772;42.700;23.304;2024-02-21T00:29:33;95739.97;;;7.86;100.00
5500;BME280;2772;42.700;23.304;2024-02-21T00:32:00;95740.78;;;7.82;100.00
5500;BME280;2772;42.700;23.304;2024-02-21T00:34:27;95749.78;;;7.81;100.00
5500;BME280;2772;42.700;23.304;2024-02-21T00:36:55;95742.66;;;7.76;100.00
5500;BME280;2772;42.700;23.304;2024-02-21T00:39:22;95740.50;;;7.83;100.00
5500;BME280;2772;42.700;23.304;2024-02-21T00:41:49;95744.00;;;7.74;100.00
5500;BME280;2772;42.700;23.304;2024-02-21T00:44:15;95733.66;;;7.77;100.00
5500;BME280;2772;42.700;23.304;2024-02-21T00:46:42;95730.97;;;7.82;100.00
5500;BME280;2772;42.700;23.304;2024-02-21T00:49:09;95728.34;;;7.77;100.00
5500;BME280;2772;42.700;23.304;2024-02-21T00:51:35;95733.16;;;7.70;100.00
5500;BME280;2772;42.700;23.304;2024-02-21T00:54:03;95729.22;;;7.63;100.00
5500;BME280;2772;42.700;23.304;2024-02-21T00:56:31;95724.13;;;7.71;100.00
5500;BME280;2772;42.700;23.304;2024-02-21T00:58:58;95714.34;;;7.67;100.00
5500;BME280;2772;42.700;23.304;2024-02-21T01:01:25;95722.84;;;7.64;100.00
5500;BME280;2772;42.700;23.304;2024-02-21T01:03:52;95714.06;;;7.63;100.00
5500;BME280;2772;42.700;23.304;2024-02-21T01:06:19;95707.72;;;7.64;100.00
5500;BME280;2772;42.700;23.304;2024-02-21T01:08:46;95709.28;;;7.70;100.00
5500;BME280;2772;42.700;23.304;2024-02-21T01:11:15;95706.34;;;7.77;100.00
5500;BME280;2772;42.700;23.304;2024-02-21T01:13:42;95717.78;;;7.72;100.00
5500;BME280;2772;42.700;23.304;2024-02-21T01:16:08;95707.66;;;7.74;100.00
5500;BME280;2772;42.700;23.304;2024-02-21T01:18:38;95694.13;;;7.81;100.00
5500;BME280;2772;42.700;23.304;2024-02-21T01:21:06;95700.19;;;7.86;100.00
5500;BME280;2772;42.700;23.304;2024-02-21T01:23:33;95710.72;;;7.96;100.00
5500;BME280;2772;42.700;23.304;2024-02-21T01:26:00;95707.53;;;7.99;100.00
5500;BME280;2772;42.700;23.304;2024-02-21T01:28:28;95705.94;;;7.98;100.00
5500;BME280;2772;42.700;23.304;2024-02-21T01:30:54;95708.72;;;7.78;100.00
5500;BME280;2772;42.700;23.304;2024-02-21T01:33:21;95701.47;;;7.94;100.00
5500;BME280;2772;42.700;23.304;2024-02-21T01:35:48;95695.44;;;7.83;100.00
5500;BME280;2772;42.700;23.304;2024-02-21T01:38:15;95695.63;;;7.92;100.00
5500;BME280;2772;42.700;23.304;2024-02-21T01:40:42;95700.13;;;7.96;100.00
5500;BME280;2772;42.700;23.304;2024-02-21T01:43:16;95701.19;;;7.95;100.00
5500;BME280;2772;42.700;23.304;2024-02-21T01:45:47;95689.00;;;7.94;100.00
5500;BME280;2772;42.700;23.304;2024-02-21T01:48:15;95688.22;;;7.94;100.00
5500;BME280;2772;42.700;23.304;2024-02-21T01:50:43;95693.22;;;8.00;100.00
5500;BME280;2772;42.700;23.304;2024-02-21T01:53:10;95687.88;;;8.05;100.00
5500;BME280;2772;42.700;23.304;2024-02-21T01:55:43;95678.97;;;7.86;100.00
5500;BME280;2772;42.700;23.304;2024-02-21T01:58:12;95681.66;;;7.81;100.00
5500;BME280;2772;42.700;23.304;2024-02-21T02:00:40;95688.09;;;7.65;100.00
5500;BME280;2772;42.700;23.304;2024-02-21T02:03:11;95682.75;;;7.75;100.00
5500;BME280;2772;42.700;23.304;2024-02-21T02:05:43;95685.88;;;7.82;100.00
5500;BME280;2772;42.700;23.304;2024-02-21T02:08:10;95696.28;;;7.74;100.00
5500;BME280;2772;42.700;23.304;2024-02-21T02:10:37;95698.13;;;7.78;100.00
5500;BME280;2772;42.700;23.304;2024-02-21T02:13:04;95692.31;;;7.71;100.00
5500;BME280;2772;42.700;23.304;2024-02-21T02:15:37;95689.16;;;7.69;100.00
5500;BME280;2772;42.700;23.304;2024-02-21T02:18:04;95684.69;;;7.65;100.00
5500;BME280;2772;42.700;23.304;2024-02-21T02:20:32;95680.69;;;7.62;100.00
5500;BME280;2772;42.700;23.304;2024-02-21T02:22:59;95678.03;;;7.62;100.00
5500;BME280;2772;42.700;23.304;2024-02-21T02:25:27;95673.00;;;7.66;100.00
5500;BME280;2772;42.700;23.304;2024-02-21T02:27:54;95677.22;;;7.72;100.00
5500;BME280;2772;42.700;23.304;2024-02-21T02:30:21;95673.00;;;7.66;100.00
5500;BME280;2772;42.700;23.304;2024-02-21T02:32:47;95678.56;;;7.69;100.00
5500;BME280;2772;42.700;23.304;2024-02-21T02:35:14;95666.38;;;7.63;100.00
5500;BME280;2772;42.700;23.304;2024-02-21T02:37:47;95667.97;;;7.64;100.00
5500;BME280;2772;42.700;23.304;2024-02-21T02:40:14;95665.84;;;7.66;100.00
5500;BME280;2772;42.700;23.304;2024-02-21T02:42:42;95672.72;;;7.72;100.00
5500;BME280;2772;42.700;23.304;2024-02-21T02:45:09;95664.22;;;7.70;100.00
5500;BME280;2772;42.700;23.304;2024-02-21T02:47:36;95662.06;;;7.77;100.00
5500;BME280;2772;42.700;23.304;2024-02-21T02:50:03;95673.72;;;7.81;100.00
5500;BME280;2772;42.700;23.304;2024-02-21T02:52:30;95677.94;;;7.82;100.00
5500;BME280;2772;42.700;23.304;2024-02-21T02:54:57;95681.09;;;7.84;100.00
5500;BME280;2772;42.700;23.304;2024-02-21T02:57:24;95685.88;;;7.87;100.00
5500;BME280;2772;42.700;23.304;2024-02-21T02:59:52;95681.09;;;7.89;100.00
5500;BME280;2772;42.700;23.304;2024-02-21T03:02:21;95679.72;;;7.97;100.00
5500;BME280;2772;42.700;23.304;2024-02-21T03:04:47;95683.16;;;7.97;100.00
5500;BME280;2772;42.700;23.304;2024-02-21T03:07:14;95677.66;;;7.84;100.00
5500;BME280;2772;42.700;23.304;2024-02-21T03:09:41;95674.69;;;7.90;100.00
5500;BME280;2772;42.700;23.304;2024-02-21T03:12:08;95683.66;;;7.99;100.00
5500;BME280;2772;42.700;23.304;2024-02-21T03:14:35;95680.56;;;7.87;100.00
5500;BME280;2772;42.700;23.304;2024-02-21T03:17:03;95683.19;;;7.92;100.00
5500;BME280;2772;42.700;23.304;2024-02-21T03:19:30;95695.16;;;7.85;100.00
5500;BME280;2772;42.700;23.304;2024-02-21T03:21:57;95698.28;;;7.92;100.00
5500;BME280;2772;42.700;23.304;2024-02-21T03:24:23;95693.25;;;7.95;100.00
5500;BME280;2772;42.700;23.304;2024-02-21T03:26:50;95691.66;;;7.94;100.00
5500;BME280;2772;42.700;23.304;2024-02-21T03:29:17;95696.19;;;7.89;100.00
5500;BME280;2772;42.700;23.304;2024-02-21T03:31:44;95698.66;;;7.80;100.00
5500;BME280;2772;42.700;23.304;2024-02-21T03:34:12;95698.38;;;7.77;100.00
5500;BME280;2772;42.700;23.304;2024-02-21T03:36:38;95694.09;;;7.86;100.00
5500;BME280;2772;42.700;23.304;2024-02-21T03:39:05;95697.41;;;7.63;100.00
5500;BME280;2772;42.700;23.304;2024-02-21T03:41:33;95698.72;;;7.65;100.00
5500;BME280;2772;42.700;23.304;2024-02-21T03:44:00;95701.34;;;7.70;100.00
5500;BME280;2772;42.700;23.304;2024-02-21T03:46:27;95701.16;;;7.57;100.00
5500;BME280;2772;42.700;23.304;2024-02-21T03:48:54;95709.59;;;7.64;100.00
5500;BME280;2772;42.700;23.304;2024-02-21T03:51:22;95704.50;;;7.72;100.00
5500;BME280;2772;42.700;23.304;2024-02-21T03:53:48;95700.75;;;7.83;100.00
5500;BME280;2772;42.700;23.304;2024-02-21T03:56:15;95711.81;;;7.90;100.00
5500;BME280;2772;42.700;23.304;2024-02-21T03:58:42;95716.88;;;7.87;100.00
5500;BME280;2772;42.700;23.304;2024-02-21T04:01:08;95714.50;;;7.85;100.00
5500;BME280;2772;42.700;23.304;2024-02-21T04:03:35;95714.75;;;7.89;100.00
5500;BME280;2772;42.700;23.304;2024-02-21T04:06:03;95707.06;;;7.87;100.00
5500;BME280;2772;42.700;23.304;2024-02-21T04:08:31;95714.84;;;7.74;100.00
5500;BME280;2772;42.700;23.304;2024-02-21T04:10:58;95706.91;;;7.74;100.00
5500;BME280;2772;42.700;23.304;2024-02-21T04:13:24;95701.28;;;7.80;100.00
5500;BME280;2772;42.700;23.304;2024-02-21T04:15:51;95715.00;;;7.92;100.00
5500;BME280;2772;42.700;23.304;2024-02-21T04:18:18;95707.56;;;7.94;100.00
5500;BME280;2772;42.700;23.304;2024-02-21T04:20:44;95710.72;;;7.96;100.00
5500;BME280;2772;42.700;23.304;2024-02-21T04:23:11;95713.16;;;7.93;100.00
5500;BME280;2772;42.700;23.304;2024-02-21T04:25:39;95716.28;;;8.00;100.00
5500;BME280;2772;42.700;23.304;2024-02-21T04:28:06;95706.53;;;7.90;100.00
5500;BME280;2772;42.700;23.304;2024-02-21T04:30:32;95706.00;;;7.88;100.00
5500;BME280;2772;42.700;23.304;2024-02-21T04:32:59;95708.13;;;7.91;100.00
5500;BME280;2772;42.700;23.304;2024-02-21T04:35:26;95709.31;;;7.65;100.00
5500;BME280;2772;42.700;23.304;2024-02-21T04:37:52;95712.03;;;7.50;100.00
5500;BME280;2772;42.700;23.304;2024-02-21T04:40:19;95708.66;;;7.40;100.00
5500;BME280;2772;42.700;23.304;2024-02-21T04:42:47;95703.56;;;7.48;100.00
5500;BME280;2772;42.700;23.304;2024-02-21T04:45:14;95702.84;;;7.28;100.00
5500;BME280;2772;42.700;23.304;2024-02-21T04:47:42;95698.81;;;7.40;100.00
5500;BME280;2772;42.700;23.304;2024-02-21T04:50:09;95697.50;;;7.38;100.00
5500;BME280;2772;42.700;23.304;2024-02-21T04:52:36;95701.47;;;7.40;100.00
5500;BME280;2772;42.700;23.304;2024-02-21T04:55:03;95704.66;;;7.42;100.00
5500;BME280;2772;42.700;23.304;2024-02-21T04:57:30;95706.47;;;7.47;100.00
5500;BME280;2772;42.700;23.304;2024-02-21T04:59:58;95694.53;;;7.54;100.00
5500;BME280;2772;42.700;23.304;2024-02-21T05:02:25;95705.66;;;7.56;100.00
5500;BME280;2772;42.700;23.304;2024-02-21T05:04:52;95710.94;;;7.61;100.00
5500;BME280;2772;42.700;23.304;2024-02-21T05:07:19;95701.44;;;7.50;100.00
5500;BME280;2772;42.700;23.304;2024-02-21T05:09:46;95708.31;;;7.51;100.00
5500;BME280;2772;42.700;23.304;2024-02-21T05:12:12;95706.66;;;7.65;100.00
5500;BME280;2772;42.700;23.304;2024-02-21T05:14:39;95714.06;;;7.63;100.00
5500;BME280;2772;42.700;23.304;2024-02-21T05:17:07;95722.53;;;7.70;100.00
5500;BME280;2772;42.700;23.304;2024-02-21T05:19:34;95723.06;;;7.77;100.00
5500;BME280;2772;42.700;23.304;2024-02-21T05:22:00;95726.72;;;7.81;100.00
5500;BME280;2772;42.700;23.304;2024-02-21T05:24:27;95719.31;;;7.78;100.00
5500;BME280;2772;42.700;23.304;2024-02-21T05:26:55;95720.91;;;7.74;100.00
5500;BME280;2772;42.700;23.304;2024-02-21T05:29:20;95723.84;;;7.73;100.00
5500;BME280;2772;42.700;23.304;2024-02-21T05:31:57;95728.38;;;7.67;100.00
5500;BME280;2772;42.700;23.304;2024-02-21T05:34:25;95718.31;;;7.69;100.00
5500;BME280;2772;42.700;23.304;2024-02-21T05:36:52;95720.47;;;7.62;100.00
5500;BME280;2772;42.700;23.304;2024-02-21T05:39:19;95701.88;;;7.67;100.00
5500;BME280;2772;42.700;23.304;2024-02-21T05:41:48;95724.38;;;7.75;100.00
5500;BME280;2772;42.700;23.304;2024-02-21T05:44:15;95717.47;;;7.79;100.00
5500;BME280;2772;42.700;23.304;2024-02-21T05:46:41;95708.69;;;7.83;100.00
5500;BME280;2772;42.700;23.304;2024-02-21T05:49:08;95717.97;;;7.81;100.00
5500;BME280;2772;42.700;23.304;2024-02-21T05:51:36;95731.75;;;7.88;100.00
5500;BME280;2772;42.700;23.304;2024-02-21T05:54:03;95735.53;;;7.72;100.00
5500;BME280;2772;42.700;23.304;2024-02-21T05:56:29;95733.97;;;7.61;100.00
5500;BME280;2772;42.700;23.304;2024-02-21T05:58:56;95735.09;;;7.50;100.00
5500;BME280;2772;42.700;23.304;2024-02-21T06:01:23;95745.69;;;7.50;100.00
5500;BME280;2772;42.700;23.304;2024-02-21T06:03:49;95740.13;;;7.51;100.00
5500;BME280;2772;42.700;23.304;2024-02-21T06:06:16;95743.31;;;7.48;100.00
5500;BME280;2772;42.700;23.304;2024-02-21T06:08:44;95738.78;;;7.54;100.00
5500;BME280;2772;42.700;23.304;2024-02-21T06:11:11;95741.38;;;7.64;100.00
5500;BME280;2772;42.700;23.304;2024-02-21T06:13:40;95749.59;;;7.67;100.00
5500;BME280;2772;42.700;23.304;2024-02-21T06:16:07;95754.91;;;7.67;100.00
5500;BME280;2772;42.700;23.304;2024-02-21T06:18:35;95755.16;;;7.66;100.00
5500;BME280;2772;42.700;23.304;2024-02-21T06:21:02;95765.75;;;7.71;100.00
5500;BME280;2772;42.700;23.304;2024-02-21T06:23:29;95756.72;;;7.72;100.00
5500;BME280;2772;42.700;23.304;2024-02-21T06:25:57;95755.94;;;7.71;100.00
5500;BME280;2772;42.700;23.304;2024-02-21T06:28:24;95763.31;;;7.84;100.00
5500;BME280;2772;42.700;23.304;2024-02-21T06:30:50;95761.47;;;7.85;100.00
5500;BME280;2772;42.700;23.304;2024-02-21T06:33:17;95766.13;;;7.98;100.00
5500;BME280;2772;42.700;23.304;2024-02-21T06:35:48;95772.97;;;8.14;100.00
5500;BME280;2772;42.700;23.304;2024-02-21T06:38:17;95778.31;;;8.04;100.00
5500;BME280;2772;42.700;23.304;2024-02-21T06:40:44;95785.69;;;8.12;100.00
5500;BME280;2772;42.700;23.304;2024-02-21T06:43:16;95789.41;;;8.16;100.00
5500;BME280;2772;42.700;23.304;2024-02-21T06:45:43;95792.81;;;8.27;100.00
5500;BME280;2772;42.700;23.304;2024-02-21T06:48:13;95795.19;;;8.28;100.00
5500;BME280;2772;42.700;23.304;2024-02-21T06:50:39;95800.22;;;8.30;100.00
5500;BME280;2772;42.700;23.304;2024-02-21T06:53:06;95798.84;;;8.37;100.00
5500;BME280;2772;42.700;23.304;2024-02-21T06:55:32;95799.59;;;8.48;100.00
5500;BME280;2772;42.700;23.304;2024-02-21T06:57:59;95793.53;;;8.37;100.00
5500;BME280;2772;42.700;23.304;2024-02-21T07:00:28;95801.72;;;8.46;100.00
5500;BME280;2772;42.700;23.304;2024-02-21T07:02:55;95791.53;;;8.63;100.00
5500;BME280;2772;42.700;23.304;2024-02-21T07:05:22;95803.38;;;8.75;100.00
5500;BME280;2772;42.700;23.304;2024-02-21T07:07:48;95806.00;;;8.80;100.00
5500;BME280;2772;42.700;23.304;2024-02-21T07:10:15;95820.03;;;8.86;100.00
5500;BME280;2772;42.700;23.304;2024-02-21T07:12:42;95803.06;;;8.82;100.00
5500;BME280;2772;42.700;23.304;2024-02-21T07:15:08;95809.94;;;8.83;100.00
5500;BME280;2772;42.700;23.304;2024-02-21T07:17:36;95810.38;;;8.95;100.00
5500;BME280;2772;42.700;23.304;2024-02-21T07:20:04;95804.50;;;8.98;100.00
5500;BME280;2772;42.700;23.304;2024-02-21T07:22:31;95810.00;;;9.11;100.00
5500;BME280;2772;42.700;23.304;2024-02-21T07:24:57;95801.06;;;9.26;100.00
5500;BME280;2772;42.700;23.304;2024-02-21T07:27:24;95820.94;;;9.33;100.00
5500;BME280;2772;42.700;23.304;2024-02-21T07:29:53;95818.78;;;9.35;100.00
5500;BME280;2772;42.700;23.304;2024-02-21T07:32:20;95820.16;;;9.33;100.00
5500;BME280;2772;42.700;23.304;2024-02-21T07:34:48;95815.06;;;9.36;100.00
5500;BME280;2772;42.700;23.304;2024-02-21T07:37:15;95812.78;;;9.53;100.00
5500;BME280;2772;42.700;23.304;2024-02-21T07:39:41;95826.28;;;9.57;100.00
5500;BME280;2772;42.700;23.304;2024-02-21T07:42:08;95819.66;;;9.54;100.00
5500;BME280;2772;42.700;23.304;2024-02-21T07:44:35;95821.31;;;9.50;100.00
5500;BME280;2772;42.700;23.304;2024-02-21T07:47:01;95823.78;;;9.42;100.00
5500;BME280;2772;42.700;23.304;2024-02-21T07:49:28;95818.75;;;9.40;100.00
5500;BME280;2772;42.700;23.304;2024-02-21T07:51:56;95818.38;;;9.52;100.00
5500;BME280;2772;42.700;23.304;2024-02-21T07:54:23;95816.69;;;9.61;100.00
5500;BME280;2772;42.700;23.304;2024-02-21T07:56:49;95824.59;;;9.66;100.00
5500;BME280;2772;42.700;23.304;2024-02-21T07:59:16;95809.66;;;9.70;100.00
5500;BME280;2772;42.700;23.304;2024-02-21T08:01:43;95810.56;;;9.84;100.00
5500;BME280;2772;42.700;23.304;2024-02-21T08:04:11;95804.00;;;10.00;100.00
5500;BME280;2772;42.700;23.304;2024-02-21T08:06:37;95807.63;;;10.09;100.00
5500;BME280;2772;42.700;23.304;2024-02-21T08:09:05;95813.94;;;10.13;100.00
5500;BME280;2772;42.700;23.304;2024-02-21T08:11:32;95811.13;;;10.05;100.00
5500;BME280;2772;42.700;23.304;2024-02-21T08:13:59;95807.22;;;9.97;100.00
5500;BME280;2772;42.700;23.304;2024-02-21T08:16:26;95819.94;;;10.00;100.00
5500;BME280;2772;42.700;23.304;2024-02-21T08:18:53;95811.59;;;9.88;100.00
5500;BME280;2772;42.700;23.304;2024-02-21T08:21:19;95808.56;;;9.71;100.00
5500;BME280;2772;42.700;23.304;2024-02-21T08:23:46;95813.16;;;9.89;100.00
5500;BME280;2772;42.700;23.304;2024-02-21T08:26:18;95809.59;;;9.99;100.00
5500;BME280;2772;42.700;23.304;2024-02-21T08:28:44;95797.91;;;10.18;100.00
5500;BME280;2772;42.700;23.304;2024-02-21T08:31:18;95804.97;;;10.28;100.00
5500;BME280;2772;42.700;23.304;2024-02-21T08:33:45;95797.16;;;10.36;100.00
5500;BME280;2772;42.700;23.304;2024-02-21T08:36:17;95811.81;;;10.52;100.00
5500;BME280;2772;42.700;23.304;2024-02-21T08:38:44;95820.63;;;10.53;100.00
5500;BME280;2772;42.700;23.304;2024-02-21T08:41:11;95798.72;;;10.56;100.00
5500;BME280;2772;42.700;23.304;2024-02-21T08:43:40;95815.06;;;10.49;100.00
5500;BME280;2772;42.700;23.304;2024-02-21T08:46:06;95808.28;;;10.38;100.00
5500;BME280;2772;42.700;23.304;2024-02-21T08:48:33;95818.31;;;10.46;100.00
5500;BME280;2772;42.700;23.304;2024-02-21T08:51:00;95824.16;;;10.48;100.00
5500;BME280;2772;42.700;23.304;2024-02-21T08:53:26;95810.31;;;10.65;100.00
5500;BME280;2772;42.700;23.304;2024-02-21T08:55:54;95812.91;;;10.70;100.00
5500;BME280;2772;42.700;23.304;2024-02-21T08:58:20;95814.47;;;10.52;100.00
5500;BME280;2772;42.700;23.304;2024-02-21T09:00:50;95816.38;;;10.52;100.00
5500;BME280;2772;42.700;23.304;2024-02-21T09:03:17;95824.38;;;10.52;100.00
5500;BME280;2772;42.700;23.304;2024-02-21T09:05:45;95827.09;;;10.65;100.00
5500;BME280;2772;42.700;23.304;2024-02-21T09:08:12;95830.63;;;10.61;100.00
5500;BME280;2772;42.700;23.304;2024-02-21T09:10:39;95824.72;;;10.45;100.00
5500;BME280;2772;42.700;23.304;2024-02-21T09:13:06;95835.44;;;10.59;100.00
5500;BME280;2772;42.700;23.304;2024-02-21T09:15:34;95828.75;;;10.61;100.00
5500;BME280;2772;42.700;23.304;2024-02-21T09:18:02;95820.09;;;10.32;100.00
5500;BME280;2772;42.700;23.304;2024-02-21T09:20:29;95828.25;;;10.41;100.00
5500;BME280;2772;42.700;23.304;2024-02-21T09:22:56;95818.88;;;10.43;100.00
5500;BME280;2772;42.700;23.304;2024-02-21T09:25:23;95828.59;;;10.34;100.00
5500;BME280;2772;42.700;23.304;2024-02-21T09:27:50;95825.34;;;10.37;100.00
5500;BME280;2772;42.700;23.304;2024-02-21T09:30:18;95819.81;;;10.34;100.00
5500;BME280;2772;42.700;23.304;2024-02-21T09:32:45;95816.97;;;10.49;100.00
5500;BME280;2772;42.700;23.304;2024-02-21T09:35:14;95820.84;;;10.56;100.00
5500;BME280;2772;42.700;23.304;2024-02-21T09:37:40;95817.53;;;10.64;100.00
5500;BME280;2772;42.700;23.304;2024-02-21T09:40:08;95826.31;;;10.83;100.00
5500;BME280;2772;42.700;23.304;2024-02-21T09:42:38;95826.97;;;10.75;100.00
5500;BME280;2772;42.700;23.304;2024-02-21T09:45:08;95822.22;;;10.72;100.00
5500;BME280;2772;42.700;23.304;2024-02-21T09:47:42;95834.94;;;10.75;100.00
5500;BME280;2772;42.700;23.304;2024-02-21T09:50:10;95809.72;;;10.68;100.00
5500;BME280;2772;42.700;23.304;2024-02-21T09:52:39;95828.59;;;10.90;100.00
5500;BME280;2772;42.700;23.304;2024-02-21T09:55:07;95825.22;;;10.84;100.00
5500;BME280;2772;42.700;23.304;2024-02-21T09:57:36;95835.94;;;10.79;100.00
5500;BME280;2772;42.700;23.304;2024-02-21T10:00:05;95825.00;;;10.81;100.00
5500;BME280;2772;42.700;23.304;2024-02-21T10:02:33;95819.09;;;10.84;100.00
5500;BME280;2772;42.700;23.304;2024-02-21T10:05:00;95811.25;;;10.74;100.00
5500;BME280;2772;42.700;23.304;2024-02-21T10:07:29;95819.00;;;10.89;100.00
5500;BME280;2772;42.700;23.304;2024-02-21T10:10:02;95813.03;;;10.97;100.00
5500;BME280;2772;42.700;23.304;2024-02-21T10:12:29;95812.44;;;11.00;100.00
5500;BME280;2772;42.700;23.304;2024-02-21T10:15:00;95822.16;;;11.09;100.00
5500;BME280;2772;42.700;23.304;2024-02-21T10:17:27;95809.34;;;11.11;100.00
5500;BME280;2772;42.700;23.304;2024-02-21T10:19:54;95803.56;;;11.04;100.00
5500;BME280;2772;42.700;23.304;2024-02-21T10:22:21;95797.25;;;11.00;100.00
5500;BME280;2772;42.700;23.304;2024-02-21T10:24:48;95806.66;;;11.11;96.89
5500;BME280;2772;42.700;23.304;2024-02-21T10:27:16;95796.13;;;11.20;96.05
5500;BME280;2772;42.700;23.304;2024-02-21T10:29:49;95799.91;;;11.33;95.59
5500;BME280;2772;42.700;23.304;2024-02-21T10:32:18;95781.34;;;11.41;92.45
5500;BME280;2772;42.700;23.304;2024-02-21T10:34:45;95780.94;;;11.48;93.92
5500;BME280;2772;42.700;23.304;2024-02-21T10:37:17;95770.47;;;11.51;94.29
5500;BME280;2772;42.700;23.304;2024-02-21T10:39:43;95760.25;;;11.72;94.71
5500;BME280;2772;42.700;23.304;2024-02-21T10:42:11;95757.09;;;11.70;91.38
5500;BME280;2772;42.700;23.304;2024-02-21T10:44:40;95751.56;;;11.80;91.47
5500;BME280;2772;42.700;23.304;2024-02-21T10:47:08;95749.94;;;11.79;89.71
5500;BME280;2772;42.700;23.304;2024-02-21T10:49:38;95756.28;;;11.83;88.74
5500;BME280;2772;42.700;23.304;2024-02-21T10:52:12;95745.69;;;11.51;85.57
5500;BME280;2772;42.700;23.304;2024-02-21T10:54:44;95733.09;;;11.24;86.24
5500;BME280;2772;42.700;23.304;2024-02-21T10:57:13;95727.44;;;11.44;89.02
5500;BME280;2772;42.700;23.304;2024-02-21T10:59:44;95727.34;;;11.63;88.63
5500;BME280;2772;42.700;23.304;2024-02-21T11:02:11;95739.66;;;11.59;85.46
5500;BME280;2772;42.700;23.304;2024-02-21T11:04:38;95713.78;;;11.59;86.61
5500;BME280;2772;42.700;23.304;2024-02-21T11:07:06;95724.44;;;11.59;85.46
5500;BME280;2772;42.700;23.304;2024-02-21T11:09:33;95708.44;;;11.59;86.15
5500;BME280;2772;42.700;23.304;2024-02-21T11:12:02;95714.47;;;11.65;79.52
5500;BME280;2772;42.700;23.304;2024-02-21T11:14:30;95714.06;;;11.58;76.53
5500;BME280;2772;42.700;23.304;2024-02-21T11:17:00;95716.16;;;11.74;78.20
5500;BME280;2772;42.700;23.304;2024-02-21T11:19:27;95711.63;;;11.75;75.92
5500;BME280;2772;42.700;23.304;2024-02-21T11:21:55;95708.56;;;11.81;78.75
5500;BME280;2772;42.700;23.304;2024-02-21T11:24:26;95715.00;;;11.80;75.36
5500;BME280;2772;42.700;23.304;2024-02-21T11:26:54;95713.59;;;11.83;73.47
5500;BME280;2772;42.700;23.304;2024-02-21T11:29:24;95714.66;;;11.95;74.69
5500;BME280;2772;42.700;23.304;2024-02-21T11:31:51;95710.91;;;11.96;75.95
5500;BME280;2772;42.700;23.304;2024-02-21T11:34:20;95705.75;;;12.00;75.39
5500;BME280;2772;42.700;23.304;2024-02-21T11:36:47;95703.34;;;12.12;74.95
5500;BME280;2772;42.700;23.304;2024-02-21T11:39:19;95701.25;;;12.22;77.70
5500;BME280;2772;42.700;23.304;2024-02-21T11:41:47;95700.06;;;12.28;78.22
5500;BME280;2772;42.700;23.304;2024-02-21T11:44:14;95697.19;;;12.25;74.24
5500;BME280;2772;42.700;23.304;2024-02-21T11:46:41;95694.03;;;12.23;73.10
5500;BME280;2772;42.700;23.304;2024-02-21T11:49:07;95689.63;;;12.05;77.67
5500;BME280;2772;42.700;23.304;2024-02-21T11:51:36;95689.88;;;12.17;75.44
5500;BME280;2772;42.700;23.304;2024-02-21T11:54:02;95691.47;;;12.18;73.13
5500;BME280;2772;42.700;23.304;2024-02-21T11:56:30;95690.00;;;12.12;73.59
5500;BME280;2772;42.700;23.304;2024-02-21T11:58:58;95689.53;;;12.10;75.12
5500;BME280;2772;42.700;23.304;2024-02-21T12:01:25;95682.59;;;12.09;76.29
5500;BME280;2772;42.700;23.304;2024-02-21T12:03:52;95689.03;;;12.08;76.43
5500;BME280;2772;42.700;23.304;2024-02-21T12:06:19;95675.56;;;12.13;75.98
5500;BME280;2772;42.700;23.304;2024-02-21T12:08:48;95666.91;;;11.94;77.00
5500;BME280;2772;42.700;23.304;2024-02-21T12:11:22;95677.63;;;11.80;77.72
5500;BME280;2772;42.700;23.304;2024-02-21T12:13:58;95670.03;;;11.74;78.27
5500;BME280;2772;42.700;23.304;2024-02-21T12:16:27;95682.78;;;11.77;78.19
5500;BME280;2772;42.700;23.304;2024-02-21T12:18:55;95674.88;;;11.72;78.95
5500;BME280;2772;42.700;23.304;2024-02-21T12:21:25;95674.75;;;11.77;83.72
5500;BME280;2772;42.700;23.304;2024-02-21T12:23:55;95664.56;;;11.79;81.24
5500;BME280;2772;42.700;23.304;2024-02-21T12:26:23;95667.03;;;11.89;79.44
5500;BME280;2772;42.700;23.304;2024-02-21T12:28:48;95657.63;;;11.91;76.76
5500;BME280;2772;42.700;23.304;2024-02-21T12:31:15;95654.19;;;11.91;76.20
5500;BME280;2772;42.700;23.304;2024-02-21T12:33:43;95660.13;;;11.88;74.88
5500;BME280;2772;42.700;23.304;2024-02-21T12:36:09;95667.41;;;11.96;74.10
5500;BME280;2772;42.700;23.304;2024-02-21T12:38:36;95660.47;;;11.95;77.05
5500;BME280;2772;42.700;23.304;2024-02-21T12:41:04;95663.75;;;11.92;77.00
5500;BME280;2772;42.700;23.304;2024-02-21T12:43:32;95655.84;;;11.87;78.37
5500;BME280;2772;42.700;23.304;2024-02-21T12:45:59;95664.44;;;11.97;80.75
5500;BME280;2772;42.700;23.304;2024-02-21T12:48:26;95660.13;;;11.88;81.28
5500;BME280;2772;42.700;23.304;2024-02-21T12:50:54;95652.41;;;11.73;85.09
5500;BME280;2772;42.700;23.304;2024-02-21T12:53:21;95651.56;;;11.64;87.36
5500;BME280;2772;42.700;23.304;2024-02-21T12:55:48;95652.72;;;11.58;90.87
5500;BME280;2772;42.700;23.304;2024-02-21T12:58:16;95649.47;;;11.47;90.88
5500;BME280;2772;42.700;23.304;2024-02-21T13:00:43;95640.09;;;11.50;91.09
5500;BME280;2772;42.700;23.304;2024-02-21T13:03:10;95643.31;;;11.60;91.15
5500;BME280;2772;42.700;23.304;2024-02-21T13:05:37;95643.94;;;11.44;91.25
5500;BME280;2772;42.700;23.304;2024-02-21T13:08:04;95645.22;;;11.33;91.15
5500;BME280;2772;42.700;23.304;2024-02-21T13:10:31;95629.84;;;11.30;92.55